Terminal Aerodrome Forecast
Issued by NWS

Current Version | Previous Version | Graphics & Text | Print | Product List | Glossary On
Versions: 1 2 3 4 5 6 7 8 9 10 11 12 13
000
FTUS41 KPBZ 212320
TAFMGW
TAF
KMGW 212320Z 2200/2224 29009KT P6SM BKN100
     FM220700 33009G15KT P6SM BKN040
     FM221600 34009KT P6SM FEW250=

USA.gov is the U.S. government's official web portal to all federal, state and local government web resources and services.